sensor_id;sensor_type;location;lat;lon;timestamp;P1;durP1;ratioP1;P2;durP2;ratioP2
44706;SDS011;30433;45.596;8.408;2023-09-07T00:05:04;7.68;;;4.85;;
44706;SDS011;30433;45.596;8.408;2023-09-07T00:11:09;5.80;;;3.85;;
44706;SDS011;30433;45.596;8.408;2023-09-07T00:17:11;5.80;;;4.40;;
44706;SDS011;30433;45.596;8.408;2023-09-07T00:29:17;4.82;;;4.30;;
44706;SDS011;30433;45.596;8.408;2023-09-07T00:35:20;6.93;;;4.35;;
44706;SDS011;30433;45.596;8.408;2023-09-07T00:41:22;4.60;;;3.90;;
44706;SDS011;30433;45.596;8.408;2023-09-07T00:47:26;4.80;;;4.30;;
44706;SDS011;30433;45.596;8.408;2023-09-07T00:53:29;4.50;;;4.10;;
44706;SDS011;30433;45.596;8.408;2023-09-07T00:59:31;5.53;;;4.30;;
44706;SDS011;30433;45.596;8.408;2023-09-07T01:05:38;4.35;;;3.95;;
44706;SDS011;30433;45.596;8.408;2023-09-07T01:11:45;4.78;;;3.40;;
44706;SDS011;30433;45.596;8.408;2023-09-07T01:17:47;5.60;;;4.10;;
44706;SDS011;30433;45.596;8.408;2023-09-07T01:29:54;6.20;;;4.32;;
44706;SDS011;30433;45.596;8.408;2023-09-07T01:35:56;6.00;;;4.43;;
44706;SDS011;30433;45.596;8.408;2023-09-07T01:42:00;4.82;;;4.38;;
44706;SDS011;30433;45.596;8.408;2023-09-07T01:48:02;4.38;;;3.97;;
44706;SDS011;30433;45.596;8.408;2023-09-07T01:54:07;4.22;;;3.83;;
44706;SDS011;30433;45.596;8.408;2023-09-07T02:00:12;5.30;;;4.20;;
44706;SDS011;30433;45.596;8.408;2023-09-07T02:06:14;4.80;;;3.78;;
44706;SDS011;30433;45.596;8.408;2023-09-07T02:12:17;5.28;;;4.30;;
44706;SDS011;30433;45.596;8.408;2023-09-07T02:18:20;4.15;;;3.75;;
44706;SDS011;30433;45.596;8.408;2023-09-07T02:24:23;4.72;;;4.20;;
44706;SDS011;30433;45.596;8.408;2023-09-07T02:30:25;5.32;;;4.55;;
44706;SDS011;30433;45.596;8.408;2023-09-07T02:36:29;5.20;;;3.88;;
44706;SDS011;30433;45.596;8.408;2023-09-07T02:42:31;5.55;;;4.30;;
44706;SDS011;30433;45.596;8.408;2023-09-07T02:48:33;4.57;;;4.15;;
44706;SDS011;30433;45.596;8.408;2023-09-07T02:54:37;5.53;;;3.92;;
44706;SDS011;30433;45.596;8.408;2023-09-07T03:00:42;4.47;;;4.07;;
44706;SDS011;30433;45.596;8.408;2023-09-07T03:06:45;4.78;;;4.03;;
44706;SDS011;30433;45.596;8.408;2023-09-07T03:12:48;4.50;;;4.10;;
44706;SDS011;30433;45.596;8.408;2023-09-07T03:18:51;4.50;;;4.10;;
44706;SDS011;30433;45.596;8.408;2023-09-07T03:24:54;5.53;;;3.88;;
44706;SDS011;30433;45.596;8.408;2023-09-07T03:30:57;4.78;;;3.72;;
44706;SDS011;30433;45.596;8.408;2023-09-07T03:36:59;4.55;;;4.00;;
44706;SDS011;30433;45.596;8.408;2023-09-07T03:43:02;5.93;;;3.80;;
44706;SDS011;30433;45.596;8.408;2023-09-07T03:55:09;5.43;;;4.07;;
44706;SDS011;30433;45.596;8.408;2023-09-07T04:01:11;5.80;;;3.90;;
44706;SDS011;30433;45.596;8.408;2023-09-07T04:07:15;6.93;;;4.28;;
44706;SDS011;30433;45.596;8.408;2023-09-07T04:13:17;7.20;;;3.80;;
44706;SDS011;30433;45.596;8.408;2023-09-07T04:19:21;5.55;;;3.78;;
44706;SDS011;30433;45.596;8.408;2023-09-07T04:25:24;5.75;;;4.28;;
44706;SDS011;30433;45.596;8.408;2023-09-07T04:31:27;4.78;;;4.28;;
44706;SDS011;30433;45.596;8.408;2023-09-07T04:37:29;4.15;;;3.75;;
44706;SDS011;30433;45.596;8.408;2023-09-07T04:43:33;5.22;;;3.92;;
44706;SDS011;30433;45.596;8.408;2023-09-07T04:49:35;3.90;;;3.50;;
44706;SDS011;30433;45.596;8.408;2023-09-07T04:55:38;5.13;;;3.95;;
44706;SDS011;30433;45.596;8.408;2023-09-07T05:01:42;4.38;;;3.92;;
44706;SDS011;30433;45.596;8.408;2023-09-07T05:07:44;4.70;;;4.28;;
44706;SDS011;30433;45.596;8.408;2023-09-07T05:13:46;6.28;;;4.22;;
44706;SDS011;30433;45.596;8.408;2023-09-07T05:19:50;5.13;;;4.00;;
44706;SDS011;30433;45.596;8.408;2023-09-07T05:25:53;11.88;;;4.10;;
44706;SDS011;30433;45.596;8.408;2023-09-07T05:31:56;5.43;;;4.00;;
44706;SDS011;30433;45.596;8.408;2023-09-07T05:38:00;4.93;;;3.80;;
44706;SDS011;30433;45.596;8.408;2023-09-07T05:44:02;8.35;;;3.42;;
44706;SDS011;30433;45.596;8.408;2023-09-07T05:50:05;6.55;;;3.90;;
44706;SDS011;30433;45.596;8.408;2023-09-07T05:56:09;4.65;;;3.42;;
44706;SDS011;30433;45.596;8.408;2023-09-07T06:02:12;5.20;;;3.50;;
44706;SDS011;30433;45.596;8.408;2023-09-07T06:08:14;3.97;;;3.58;;
44706;SDS011;30433;45.596;8.408;2023-09-07T06:14:17;4.00;;;3.50;;
44706;SDS011;30433;45.596;8.408;2023-09-07T06:20:20;4.40;;;3.75;;
44706;SDS011;30433;45.596;8.408;2023-09-07T06:26:22;4.53;;;3.55;;
44706;SDS011;30433;45.596;8.408;2023-09-07T06:32:26;4.82;;;3.85;;
44706;SDS011;30433;45.596;8.408;2023-09-07T06:38:29;4.22;;;3.60;;
44706;SDS011;30433;45.596;8.408;2023-09-07T06:44:33;4.45;;;3.67;;
44706;SDS011;30433;45.596;8.408;2023-09-07T06:50:37;4.97;;;3.80;;
44706;SDS011;30433;45.596;8.408;2023-09-07T06:56:39;5.15;;;3.75;;
44706;SDS011;30433;45.596;8.408;2023-09-07T07:02:42;5.38;;;3.63;;
44706;SDS011;30433;45.596;8.408;2023-09-07T07:08:45;3.97;;;3.55;;
44706;SDS011;30433;45.596;8.408;2023-09-07T07:14:48;3.40;;;3.10;;
44706;SDS011;30433;45.596;8.408;2023-09-07T07:20:50;8.52;;;3.78;;
44706;SDS011;30433;45.596;8.408;2023-09-07T07:26:53;5.47;;;3.72;;
44706;SDS011;30433;45.596;8.408;2023-09-07T07:32:56;4.93;;;3.42;;
44706;SDS011;30433;45.596;8.408;2023-09-07T07:38:58;4.57;;;3.90;;
44706;SDS011;30433;45.596;8.408;2023-09-07T07:45:01;4.85;;;3.83;;
44706;SDS011;30433;45.596;8.408;2023-09-07T07:51:04;5.63;;;3.95;;
44706;SDS011;30433;45.596;8.408;2023-09-07T07:57:07;4.80;;;3.83;;
44706;SDS011;30433;45.596;8.408;2023-09-07T08:15:15;9.65;;;4.70;;
44706;SDS011;30433;45.596;8.408;2023-09-07T08:21:21;5.78;;;4.30;;
44706;SDS011;30433;45.596;8.408;2023-09-07T08:27:24;5.47;;;4.28;;
44706;SDS011;30433;45.596;8.408;2023-09-07T08:33:27;5.75;;;4.30;;
44706;SDS011;30433;45.596;8.408;2023-09-07T08:39:31;7.05;;;4.93;;
44706;SDS011;30433;45.596;8.408;2023-09-07T08:45:35;9.27;;;6.28;;
44706;SDS011;30433;45.596;8.408;2023-09-07T08:51:48;9.48;;;6.32;;
44706;SDS011;30433;45.596;8.408;2023-09-07T08:57:53;12.93;;;6.70;;
44706;SDS011;30433;45.596;8.408;2023-09-07T09:03:55;9.55;;;6.20;;
44706;SDS011;30433;45.596;8.408;2023-09-07T09:10:04;7.63;;;5.63;;
44706;SDS011;30433;45.596;8.408;2023-09-07T09:16:09;9.30;;;5.90;;
44706;SDS011;30433;45.596;8.408;2023-09-07T09:22:13;9.00;;;6.00;;
44706;SDS011;30433;45.596;8.408;2023-09-07T09:28:15;8.65;;;5.60;;
44706;SDS011;30433;45.596;8.408;2023-09-07T09:34:19;6.28;;;5.50;;
44706;SDS011;30433;45.596;8.408;2023-09-07T09:40:22;9.93;;;5.00;;
44706;SDS011;30433;45.596;8.408;2023-09-07T09:46:25;7.97;;;5.82;;
44706;SDS011;30433;45.596;8.408;2023-09-07T09:52:30;6.15;;;5.55;;
44706;SDS011;30433;45.596;8.408;2023-09-07T09:58:34;6.75;;;5.28;;
44706;SDS011;30433;45.596;8.408;2023-09-07T10:04:37;7.20;;;5.57;;
44706;SDS011;30433;45.596;8.408;2023-09-07T10:10:42;5.88;;;5.03;;
44706;SDS011;30433;45.596;8.408;2023-09-07T10:16:45;5.95;;;4.82;;
44706;SDS011;30433;45.596;8.408;2023-09-07T10:22:48;5.85;;;5.00;;
44706;SDS011;30433;45.596;8.408;2023-09-07T10:29:00;8.18;;;5.60;;
44706;SDS011;30433;45.596;8.408;2023-09-07T10:35:11;6.43;;;4.82;;
44706;SDS011;30433;45.596;8.408;2023-09-07T10:41:17;5.88;;;4.78;;
44706;SDS011;30433;45.596;8.408;2023-09-07T10:47:21;8.38;;;5.38;;
44706;SDS011;30433;45.596;8.408;2023-09-07T10:53:24;8.52;;;5.45;;
44706;SDS011;30433;45.596;8.408;2023-09-07T10:59:27;11.77;;;6.10;;
44706;SDS011;30433;45.596;8.408;2023-09-07T11:05:31;5.88;;;4.93;;
44706;SDS011;30433;45.596;8.408;2023-09-07T11:11:37;7.32;;;5.50;;
44706;SDS011;30433;45.596;8.408;2023-09-07T11:17:40;10.63;;;5.72;;
44706;SDS011;30433;45.596;8.408;2023-09-07T11:23:44;6.15;;;5.50;;
44706;SDS011;30433;45.596;8.408;2023-09-07T11:29:50;8.70;;;5.57;;
44706;SDS011;30433;45.596;8.408;2023-09-07T11:35:54;7.05;;;5.50;;
44706;SDS011;30433;45.596;8.408;2023-09-07T11:41:57;10.30;;;5.13;;
44706;SDS011;30433;45.596;8.408;2023-09-07T11:47:59;9.38;;;5.68;;
44706;SDS011;30433;45.596;8.408;2023-09-07T11:54:02;13.85;;;5.20;;
44706;SDS011;30433;45.596;8.408;2023-09-07T12:00:07;7.55;;;5.95;;
44706;SDS011;30433;45.596;8.408;2023-09-07T12:06:11;8.68;;;5.47;;
44706;SDS011;30433;45.596;8.408;2023-09-07T12:12:13;6.28;;;4.70;;
44706;SDS011;30433;45.596;8.408;2023-09-07T12:18:17;6.97;;;4.45;;
44706;SDS011;30433;45.596;8.408;2023-09-07T12:24:19;7.07;;;5.15;;
44706;SDS011;30433;45.596;8.408;2023-09-07T12:30:22;5.68;;;4.93;;
44706;SDS011;30433;45.596;8.408;2023-09-07T12:36:26;6.80;;;5.25;;
44706;SDS011;30433;45.596;8.408;2023-09-07T12:42:30;8.85;;;5.50;;
44706;SDS011;30433;45.596;8.408;2023-09-07T12:48:32;6.53;;;5.50;;
44706;SDS011;30433;45.596;8.408;2023-09-07T12:54:35;10.63;;;4.47;;
44706;SDS011;30433;45.596;8.408;2023-09-07T13:00:38;8.05;;;5.78;;
44706;SDS011;30433;45.596;8.408;2023-09-07T13:06:40;16.75;;;5.32;;
44706;SDS011;30433;45.596;8.408;2023-09-07T13:12:47;7.72;;;5.05;;
44706;SDS011;30433;45.596;8.408;2023-09-07T13:18:49;7.03;;;4.45;;
44706;SDS011;30433;45.596;8.408;2023-09-07T13:24:51;6.82;;;5.15;;
44706;SDS011;30433;45.596;8.408;2023-09-07T13:30:55;7.50;;;4.90;;
44706;SDS011;30433;45.596;8.408;2023-09-07T13:36:57;5.90;;;4.47;;
44706;SDS011;30433;45.596;8.408;2023-09-07T13:42:59;5.75;;;4.80;;
44706;SDS011;30433;45.596;8.408;2023-09-07T13:49:03;7.30;;;5.50;;
44706;SDS011;30433;45.596;8.408;2023-09-07T13:55:05;7.65;;;6.40;;
44706;SDS011;30433;45.596;8.408;2023-09-07T14:01:08;4.82;;;4.13;;
44706;SDS011;30433;45.596;8.408;2023-09-07T14:07:11;8.07;;;4.72;;
44706;SDS011;30433;45.596;8.408;2023-09-07T14:13:14;5.60;;;4.57;;
44706;SDS011;30433;45.596;8.408;2023-09-07T14:19:16;6.93;;;4.78;;
44706;SDS011;30433;45.596;8.408;2023-09-07T14:25:20;4.93;;;4.43;;
44706;SDS011;30433;45.596;8.408;2023-09-07T14:31:22;5.63;;;4.85;;
44706;SDS011;30433;45.596;8.408;2023-09-07T14:37:24;9.90;;;5.10;;
44706;SDS011;30433;45.596;8.408;2023-09-07T14:43:28;7.72;;;4.93;;
44706;SDS011;30433;45.596;8.408;2023-09-07T14:49:30;8.73;;;4.82;;
44706;SDS011;30433;45.596;8.408;2023-09-07T14:55:32;7.50;;;4.70;;
44706;SDS011;30433;45.596;8.408;2023-09-07T15:01:36;5.68;;;5.10;;
44706;SDS011;30433;45.596;8.408;2023-09-07T15:07:38;10.40;;;5.45;;
44706;SDS011;30433;45.596;8.408;2023-09-07T15:13:40;8.40;;;6.20;;
44706;SDS011;30433;45.596;8.408;2023-09-07T15:19:46;9.13;;;5.53;;
44706;SDS011;30433;45.596;8.408;2023-09-07T15:25:48;9.15;;;5.18;;
44706;SDS011;30433;45.596;8.408;2023-09-07T15:31:50;9.05;;;5.28;;
44706;SDS011;30433;45.596;8.408;2023-09-07T15:37:54;8.20;;;4.72;;
44706;SDS011;30433;45.596;8.408;2023-09-07T15:43:57;6.22;;;5.10;;
44706;SDS011;30433;45.596;8.408;2023-09-07T15:49:59;5.82;;;5.25;;
44706;SDS011;30433;45.596;8.408;2023-09-07T15:56:04;6.03;;;4.90;;
44706;SDS011;30433;45.596;8.408;2023-09-07T16:02:06;7.13;;;4.93;;
44706;SDS011;30433;45.596;8.408;2023-09-07T16:08:08;9.93;;;4.43;;
44706;SDS011;30433;45.596;8.408;2023-09-07T16:14:12;8.35;;;4.18;;
44706;SDS011;30433;45.596;8.408;2023-09-07T16:20:15;5.93;;;4.50;;
44706;SDS011;30433;45.596;8.408;2023-09-07T16:26:17;5.88;;;4.45;;
44706;SDS011;30433;45.596;8.408;2023-09-07T16:32:22;8.48;;;4.85;;
44706;SDS011;30433;45.596;8.408;2023-09-07T16:38:24;6.53;;;4.60;;
44706;SDS011;30433;45.596;8.408;2023-09-07T16:44:26;6.38;;;4.50;;
44706;SDS011;30433;45.596;8.408;2023-09-07T16:50:29;6.68;;;4.25;;
44706;SDS011;30433;45.596;8.408;2023-09-07T16:56:31;6.53;;;4.65;;
44706;SDS011;30433;45.596;8.408;2023-09-07T17:02:33;6.97;;;4.68;;
44706;SDS011;30433;45.596;8.408;2023-09-07T17:08:37;6.00;;;4.53;;
44706;SDS011;30433;45.596;8.408;2023-09-07T17:14:39;8.15;;;4.72;;
44706;SDS011;30433;45.596;8.408;2023-09-07T17:20:41;6.03;;;4.43;;
44706;SDS011;30433;45.596;8.408;2023-09-07T17:26:45;8.45;;;4.85;;
44706;SDS011;30433;45.596;8.408;2023-09-07T17:32:47;12.27;;;5.20;;
44706;SDS011;30433;45.596;8.408;2023-09-07T17:38:49;12.85;;;5.78;;
44706;SDS011;30433;45.596;8.408;2023-09-07T17:44:56;11.82;;;4.82;;
44706;SDS011;30433;45.596;8.408;2023-09-07T17:50:58;8.13;;;5.32;;
44706;SDS011;30433;45.596;8.408;2023-09-07T17:57:00;6.68;;;4.88;;
44706;SDS011;30433;45.596;8.408;2023-09-07T18:03:04;6.85;;;5.15;;
44706;SDS011;30433;45.596;8.408;2023-09-07T18:09:06;8.85;;;5.38;;
44706;SDS011;30433;45.596;8.408;2023-09-07T18:15:09;6.25;;;5.60;;
44706;SDS011;30433;45.596;8.408;2023-09-07T18:21:13;7.63;;;5.80;;
44706;SDS011;30433;45.596;8.408;2023-09-07T18:27:15;6.82;;;6.00;;
44706;SDS011;30433;45.596;8.408;2023-09-07T18:33:17;12.20;;;5.97;;
44706;SDS011;30433;45.596;8.408;2023-09-07T18:39:22;6.75;;;5.97;;
44706;SDS011;30433;45.596;8.408;2023-09-07T18:45:24;9.68;;;5.60;;
44706;SDS011;30433;45.596;8.408;2023-09-07T18:51:26;13.07;;;6.72;;
44706;SDS011;30433;45.596;8.408;2023-09-07T18:57:30;9.48;;;6.80;;
44706;SDS011;30433;45.596;8.408;2023-09-07T19:03:32;6.95;;;6.25;;
44706;SDS011;30433;45.596;8.408;2023-09-07T19:09:34;7.85;;;5.60;;
44706;SDS011;30433;45.596;8.408;2023-09-07T19:15:38;10.45;;;5.72;;
44706;SDS011;30433;45.596;8.408;2023-09-07T19:21:40;8.10;;;5.70;;
44706;SDS011;30433;45.596;8.408;2023-09-07T19:27:42;6.78;;;6.00;;
44706;SDS011;30433;45.596;8.408;2023-09-07T19:33:48;7.35;;;5.60;;
44706;SDS011;30433;45.596;8.408;2023-09-07T19:39:51;7.22;;;6.53;;
44706;SDS011;30433;45.596;8.408;2023-09-07T19:45:53;8.90;;;5.57;;
44706;SDS011;30433;45.596;8.408;2023-09-07T19:51:56;7.15;;;6.40;;
44706;SDS011;30433;45.596;8.408;2023-09-07T19:57:59;7.43;;;5.93;;
44706;SDS011;30433;45.596;8.408;2023-09-07T20:10:14;7.80;;;6.00;;
44706;SDS011;30433;45.596;8.408;2023-09-07T20:16:16;6.82;;;6.18;;
44706;SDS011;30433;45.596;8.408;2023-09-07T20:28:22;6.90;;;6.30;;
44706;SDS011;30433;45.596;8.408;2023-09-07T20:34:25;7.13;;;6.15;;
44706;SDS011;30433;45.596;8.408;2023-09-07T20:40:27;7.60;;;6.15;;
44706;SDS011;30433;45.596;8.408;2023-09-07T20:46:31;9.73;;;6.53;;
44706;SDS011;30433;45.596;8.408;2023-09-07T20:52:33;7.13;;;6.32;;
44706;SDS011;30433;45.596;8.408;2023-09-07T20:58:35;11.25;;;6.85;;
44706;SDS011;30433;45.596;8.408;2023-09-07T21:04:39;6.38;;;5.78;;
44706;SDS011;30433;45.596;8.408;2023-09-07T21:10:41;6.45;;;5.82;;
44706;SDS011;30433;45.596;8.408;2023-09-07T21:16:45;8.63;;;5.97;;
44706;SDS011;30433;45.596;8.408;2023-09-07T21:22:48;7.25;;;6.20;;
44706;SDS011;30433;45.596;8.408;2023-09-07T21:28:50;6.80;;;6.20;;
44706;SDS011;30433;45.596;8.408;2023-09-07T21:34:52;8.13;;;6.60;;
44706;SDS011;30433;45.596;8.408;2023-09-07T21:40:56;7.28;;;6.15;;
44706;SDS011;30433;45.596;8.408;2023-09-07T21:46:58;8.40;;;6.85;;
44706;SDS011;30433;45.596;8.408;2023-09-07T21:53:00;8.32;;;6.75;;
44706;SDS011;30433;45.596;8.408;2023-09-07T21:59:05;7.55;;;6.78;;
44706;SDS011;30433;45.596;8.408;2023-09-07T22:05:07;7.90;;;6.90;;
44706;SDS011;30433;45.596;8.408;2023-09-07T22:11:10;7.18;;;6.45;;
44706;SDS011;30433;45.596;8.408;2023-09-07T22:17:14;6.70;;;6.03;;
44706;SDS011;30433;45.596;8.408;2023-09-07T22:23:16;7.88;;;6.50;;
44706;SDS011;30433;45.596;8.408;2023-09-07T22:35:22;9.75;;;6.25;;
44706;SDS011;30433;45.596;8.408;2023-09-07T22:41:24;6.75;;;6.05;;
44706;SDS011;30433;45.596;8.408;2023-09-07T22:47:26;7.40;;;5.90;;
44706;SDS011;30433;45.596;8.408;2023-09-07T22:53:30;6.95;;;6.30;;
44706;SDS011;30433;45.596;8.408;2023-09-07T22:59:32;7.20;;;6.50;;
44706;SDS011;30433;45.596;8.408;2023-09-07T23:05:34;7.97;;;6.72;;
44706;SDS011;30433;45.596;8.408;2023-09-07T23:11:37;6.97;;;6.38;;
44706;SDS011;30433;45.596;8.408;2023-09-07T23:17:41;6.70;;;5.93;;
44706;SDS011;30433;45.596;8.408;2023-09-07T23:23:44;6.65;;;5.75;;
44706;SDS011;30433;45.596;8.408;2023-09-07T23:29:47;7.30;;;6.10;;
44706;SDS011;30433;45.596;8.408;2023-09-07T23:35:49;7.82;;;6.05;;
44706;SDS011;30433;45.596;8.408;2023-09-07T23:41:52;8.57;;;6.28;;
44706;SDS011;30433;45.596;8.408;2023-09-07T23:47:56;7.80;;;6.50;;
44706;SDS011;30433;45.596;8.408;2023-09-07T23:53:58;9.23;;;6.50;;
